createdAt,value
2018-05-10T00:01:33.579Z,94534.81
2018-05-10T00:04:01.087Z,94544.16
2018-05-10T00:06:28.619Z,94531.00
2018-05-10T00:08:56.172Z,94527.89
2018-05-10T00:11:23.680Z,94531.23
2018-05-10T00:13:51.182Z,94533.58
2018-05-10T00:16:18.721Z,94537.33
2018-05-10T00:18:46.219Z,94539.61
2018-05-10T00:21:13.766Z,94529.78
2018-05-10T00:23:41.273Z,94518.10
2018-05-10T00:26:08.790Z,94529.30
2018-05-10T00:28:36.291Z,94513.70
2018-05-10T00:31:03.843Z,94528.45
2018-05-10T00:33:31.338Z,94528.39
2018-05-10T00:35:58.878Z,94526.08
2018-05-10T00:38:26.422Z,94532.45
2018-05-10T00:40:53.965Z,94534.91
2018-05-10T00:43:21.469Z,94533.70
2018-05-10T00:45:48.967Z,94531.84
2018-05-10T00:48:16.487Z,94525.17
2018-05-10T00:50:44.034Z,94532.06
2018-05-10T00:53:11.547Z,94532.06
2018-05-10T00:55:39.044Z,94527.59
2018-05-10T00:58:06.561Z,94528.53
2018-05-10T01:00:34.096Z,94529.73
2018-05-10T01:03:01.717Z,94533.39
2018-05-10T01:05:29.359Z,94537.70
2018-05-10T01:07:56.859Z,94536.72
2018-05-10T01:10:24.368Z,94526.42
2018-05-10T01:12:51.884Z,94536.56
2018-05-10T01:15:19.428Z,94534.06
2018-05-10T01:17:46.940Z,94529.37
2018-05-10T01:20:14.452Z,94536.74
2018-05-10T01:22:41.991Z,94531.61
2018-05-10T01:25:09.487Z,94538.29
2018-05-10T01:27:37.019Z,94532.29
2018-05-10T01:30:05.693Z,94523.69
2018-05-10T01:32:33.198Z,94524.22
2018-05-10T01:35:12.459Z,94527.27
2018-05-10T01:37:39.960Z,94521.94
2018-05-10T01:40:07.454Z,94526.53
2018-05-10T01:42:34.965Z,94528.09
2018-05-10T01:45:02.476Z,94537.80
2018-05-10T01:47:30.023Z,94534.08
2018-05-10T01:49:57.543Z,94542.63
2018-05-10T01:52:25.053Z,94537.80
2018-05-10T01:54:52.587Z,94538.00
2018-05-10T01:57:20.091Z,94532.86
2018-05-10T01:59:47.596Z,94547.23
2018-05-10T02:02:15.134Z,94540.68
2018-05-10T02:04:42.626Z,94541.95
2018-05-10T02:07:10.168Z,94548.45
2018-05-10T02:09:37.667Z,94549.38
2018-05-10T02:12:05.191Z,94551.41
2018-05-10T02:14:32.703Z,94538.13
2018-05-10T02:17:00.212Z,94528.87
2018-05-10T02:19:27.781Z,94538.95
2018-05-10T02:21:55.280Z,94538.38
2018-05-10T02:24:22.793Z,94549.75
2018-05-10T02:26:50.347Z,94555.25
2018-05-10T02:29:17.856Z,94550.80
2018-05-10T02:31:45.405Z,94556.45
2018-05-10T02:34:12.948Z,94559.64
2018-05-10T02:36:40.451Z,94557.61
2018-05-10T02:39:07.962Z,94559.95
2018-05-10T02:41:35.518Z,94578.23
2018-05-10T02:44:03.028Z,94557.69
2018-05-10T02:46:30.543Z,94562.33
2018-05-10T02:48:58.055Z,94565.72
2018-05-10T02:51:25.601Z,94583.00
2018-05-10T02:53:53.120Z,94566.82
2018-05-10T02:56:20.650Z,94571.73
2018-05-10T02:58:48.162Z,94572.10
2018-05-10T03:01:15.663Z,94573.45
2018-05-10T03:03:43.178Z,94574.77
2018-05-10T03:06:10.680Z,94573.82
2018-05-10T03:08:38.222Z,94574.10
2018-05-10T03:11:05.724Z,94575.69
2018-05-10T03:13:33.229Z,94577.80
2018-05-10T03:16:00.741Z,94576.09
2018-05-10T03:18:28.253Z,94582.92
2018-05-10T03:20:55.767Z,94581.20
2018-05-10T03:23:23.271Z,94582.52
2018-05-10T03:25:50.775Z,94563.08
2018-05-10T03:28:18.303Z,94584.54
2018-05-10T03:30:45.817Z,94590.89
2018-05-10T03:33:13.377Z,94587.14
2018-05-10T03:35:40.846Z,94598.78
2018-05-10T03:38:08.350Z,94606.05
2018-05-10T03:40:35.874Z,94605.33
2018-05-10T03:43:03.387Z,94598.97
2018-05-10T03:45:30.892Z,94606.88
2018-05-10T03:47:58.441Z,94611.17
2018-05-10T03:50:25.975Z,94613.84
2018-05-10T03:52:53.520Z,94602.86
2018-05-10T03:55:21.026Z,94612.20
2018-05-10T03:57:48.533Z,94616.66
2018-05-10T04:00:16.043Z,94610.68
2018-05-10T04:05:59.098Z,94611.79
2018-05-10T04:08:38.259Z,94614.25
2018-05-10T04:11:17.560Z,94614.13
2018-05-10T04:13:45.074Z,94615.17
2018-05-10T04:16:12.635Z,94618.45
2018-05-10T04:18:40.148Z,94622.07
2018-05-10T04:21:07.659Z,94627.09
2018-05-10T04:23:35.176Z,94623.55
2018-05-10T04:26:02.712Z,94630.28
2018-05-10T04:28:30.216Z,94630.77
2018-05-10T04:30:57.724Z,94634.00
2018-05-10T04:33:25.283Z,94631.67
2018-05-10T04:35:52.824Z,94631.33
2018-05-10T04:38:20.325Z,94637.05
2018-05-10T04:40:47.825Z,94626.89
2018-05-10T04:43:15.332Z,94630.12
2018-05-10T04:45:42.855Z,94628.83
2018-05-10T04:48:10.388Z,94626.42
2018-05-10T04:50:37.929Z,94632.89
2018-05-10T04:53:05.446Z,94637.00
2018-05-10T04:55:32.964Z,94641.00
2018-05-10T04:58:00.467Z,94635.13
2018-05-10T05:00:27.986Z,94643.72
2018-05-10T05:02:55.499Z,94645.98
2018-05-10T05:05:23.007Z,94648.03
2018-05-10T05:07:50.534Z,94646.86
2018-05-10T05:10:18.058Z,94647.91
2018-05-10T05:12:45.580Z,94642.20
2018-05-10T05:15:13.125Z,94647.74
2018-05-10T05:17:40.625Z,94653.00
2018-05-10T05:20:08.138Z,94634.64
2018-05-10T05:22:35.639Z,94654.68
2018-05-10T05:25:03.159Z,94656.05
2018-05-10T05:27:30.676Z,94657.58
2018-05-10T05:29:58.200Z,94659.97
2018-05-10T05:32:25.754Z,94666.52
2018-05-10T05:34:53.366Z,94664.13
2018-05-10T05:37:21.024Z,94666.28
2018-05-10T05:39:48.521Z,94667.00
2018-05-10T05:42:16.055Z,94665.83
2018-05-10T05:44:43.631Z,94663.93
2018-05-10T05:47:11.135Z,94662.09
2018-05-10T05:49:38.637Z,94675.56
2018-05-10T05:52:06.206Z,94671.17
2018-05-10T05:54:33.759Z,94677.75
2018-05-10T05:57:01.292Z,94675.47
2018-05-10T05:59:28.873Z,94662.95
2018-05-10T06:01:56.379Z,94679.67
2018-05-10T06:04:23.931Z,94685.88
2018-05-10T06:06:51.479Z,94691.66
2018-05-10T06:09:18.980Z,94672.95
2018-05-10T06:11:46.547Z,94683.88
2018-05-10T06:14:14.179Z,94681.37
2018-05-10T06:16:41.777Z,94683.98
2018-05-10T06:19:09.275Z,94683.31
2018-05-10T06:21:36.779Z,94687.26
2018-05-10T06:24:04.319Z,94688.64
2018-05-10T06:26:31.823Z,94686.78
2018-05-10T06:28:59.329Z,94680.48
2018-05-10T06:31:26.871Z,94691.72
2018-05-10T06:33:54.428Z,94696.45
2018-05-10T06:36:21.935Z,94695.27
2018-05-10T06:38:49.481Z,94688.53
2018-05-10T06:41:16.984Z,94683.91
2018-05-10T06:43:44.525Z,94701.65
2018-05-10T06:46:12.022Z,94707.49
2018-05-10T06:48:39.562Z,94701.64
2018-05-10T06:51:07.066Z,94690.14
2018-05-10T06:53:34.584Z,94714.34
2018-05-10T06:56:02.132Z,94705.56
2018-05-10T06:58:29.641Z,94698.06
2018-05-10T07:00:57.184Z,94712.13
2018-05-10T07:03:24.765Z,94708.36
2018-05-10T07:05:52.235Z,94707.89
2018-05-10T07:08:19.735Z,94703.78
2018-05-10T07:10:47.362Z,94714.78
2018-05-10T07:13:14.933Z,94710.31
2018-05-10T07:15:42.435Z,94707.23
2018-05-10T07:18:09.936Z,94701.02
2018-05-10T07:20:37.451Z,94703.59
2018-05-10T07:23:04.988Z,94707.92
2018-05-10T07:25:32.483Z,94704.68
2018-05-10T07:28:00.039Z,94714.02
2018-05-10T07:30:27.644Z,94702.88
2018-05-10T07:32:55.194Z,94717.70
2018-05-10T07:35:22.721Z,94718.70
2018-05-10T07:37:50.323Z,94712.50
2018-05-10T07:40:17.824Z,94717.45
2018-05-10T07:42:45.325Z,94712.92
2018-05-10T07:45:12.868Z,94723.82
2018-05-10T07:47:40.405Z,94727.44
2018-05-10T07:50:07.916Z,94716.70
2018-05-10T07:52:35.428Z,94724.11
2018-05-10T07:55:02.936Z,94716.55
2018-05-10T07:57:30.476Z,94721.66
2018-05-10T07:59:57.979Z,94726.63
2018-05-10T08:02:25.547Z,94726.84
2018-05-10T08:04:53.071Z,94725.71
2018-05-10T08:07:20.581Z,94717.36
2018-05-10T08:09:48.128Z,94735.39
2018-05-10T08:12:15.619Z,94726.80
2018-05-10T08:14:43.123Z,94734.94
2018-05-10T08:17:10.676Z,94733.72
2018-05-10T08:19:38.151Z,94724.05
2018-05-10T08:22:05.646Z,94697.70
2018-05-10T08:24:33.149Z,94750.46
2018-05-10T08:27:00.664Z,94753.19
2018-05-10T08:29:31.102Z,94752.38
2018-05-10T08:31:58.638Z,94759.45
2018-05-10T08:34:26.159Z,94754.86
2018-05-10T08:36:53.709Z,94758.95
2018-05-10T08:39:21.365Z,94748.86
2018-05-10T08:41:48.913Z,94718.95
2018-05-10T08:44:16.411Z,94750.55
2018-05-10T08:46:44.010Z,94750.66
2018-05-10T08:49:11.539Z,94752.72
2018-05-10T08:51:39.060Z,94750.41
2018-05-10T08:54:06.576Z,94755.69
2018-05-10T08:56:34.079Z,94757.29
2018-05-10T08:59:01.579Z,94753.06
2018-05-10T09:01:29.075Z,94747.20
2018-05-10T09:03:56.635Z,94751.28
2018-05-10T09:06:24.216Z,94744.13
2018-05-10T09:08:51.751Z,94756.20
2018-05-10T09:11:19.258Z,94746.88
2018-05-10T09:13:46.750Z,94744.05
2018-05-10T09:16:14.249Z,94741.16
2018-05-10T09:18:41.760Z,94741.33
2018-05-10T09:21:09.270Z,94744.58
2018-05-10T09:23:36.790Z,94746.41
2018-05-10T09:26:04.360Z,94749.77
2018-05-10T09:28:31.842Z,94731.43
2018-05-10T09:30:59.345Z,94728.68
2018-05-10T09:33:26.906Z,94719.78
2018-05-10T09:35:54.403Z,94723.38
2018-05-10T09:38:21.935Z,94729.36
2018-05-10T09:40:49.454Z,94732.48
2018-05-10T09:43:16.969Z,94726.89
2018-05-10T09:45:44.480Z,94720.84
2018-05-10T09:48:11.984Z,94718.83
2018-05-10T09:50:39.524Z,94709.06
2018-05-10T09:53:07.056Z,94710.66
2018-05-10T09:55:34.563Z,94703.17
2018-05-10T09:58:02.070Z,94704.33
2018-05-10T10:00:29.604Z,94705.61
2018-05-10T10:02:57.114Z,94706.86
2018-05-10T10:05:24.954Z,94705.84
2018-05-10T10:07:52.459Z,94698.50
2018-05-10T10:10:20.003Z,94680.86
2018-05-10T10:12:47.503Z,94702.52
2018-05-10T10:15:15.066Z,94707.55
2018-05-10T10:17:42.669Z,94715.61
2018-05-10T10:20:10.189Z,94713.42
2018-05-10T10:22:37.697Z,94697.13
2018-05-10T10:25:05.232Z,94711.08
2018-05-10T10:27:32.745Z,94718.59
2018-05-10T10:30:00.238Z,94712.91
2018-05-10T10:32:27.745Z,94723.02
2018-05-10T10:34:55.251Z,94719.56
2018-05-10T10:37:22.800Z,94714.61
2018-05-10T10:39:51.969Z,94714.41
2018-05-10T10:42:19.628Z,94710.78
2018-05-10T10:44:47.249Z,94710.92
2018-05-10T10:47:14.798Z,94715.42
2018-05-10T10:49:43.401Z,94708.14
2018-05-10T10:52:10.908Z,94706.84
2018-05-10T10:54:38.411Z,94707.66
2018-05-10T10:57:05.922Z,94699.69
2018-05-10T10:59:33.467Z,94703.52
2018-05-10T11:02:01.113Z,94706.21
2018-05-10T11:04:28.722Z,94700.68
2018-05-10T11:06:56.266Z,94707.67
2018-05-10T11:09:23.905Z,94701.22
2018-05-10T11:11:51.555Z,94705.80
2018-05-10T11:14:19.106Z,94709.20
2018-05-10T11:16:46.648Z,94702.70
2018-05-10T11:19:14.164Z,94709.72
2018-05-10T11:21:41.703Z,94703.37
2018-05-10T11:24:09.204Z,94695.05
2018-05-10T11:26:36.753Z,94692.48
2018-05-10T11:29:04.287Z,94697.22
2018-05-10T11:31:31.833Z,94705.38
2018-05-10T11:33:59.354Z,94706.78
2018-05-10T11:36:26.881Z,94703.53
2018-05-10T11:38:54.422Z,94697.52
2018-05-10T11:41:22.021Z,94696.91
2018-05-10T11:43:49.536Z,94698.66
2018-05-10T11:46:17.071Z,94706.22
2018-05-10T11:48:44.625Z,94712.85
2018-05-10T11:51:12.129Z,94714.70
2018-05-10T11:53:39.685Z,94727.08
2018-05-10T11:56:07.373Z,94716.98
2018-05-10T11:58:34.932Z,94724.09
2018-05-10T12:01:02.439Z,94726.55
2018-05-10T12:03:29.946Z,94728.02
2018-05-10T12:05:57.473Z,94738.88
2018-05-10T12:08:25.119Z,94737.16
2018-05-10T12:10:52.610Z,94739.38
2018-05-10T12:13:20.103Z,94732.98
2018-05-10T12:15:47.611Z,94733.61
2018-05-10T12:18:15.139Z,94723.92
2018-05-10T12:20:42.650Z,94737.45
2018-05-10T12:23:10.223Z,94733.41
2018-05-10T12:25:37.727Z,94746.23
2018-05-10T12:28:05.251Z,94748.40
2018-05-10T12:30:32.814Z,94736.70
2018-05-10T12:33:00.330Z,94742.78
2018-05-10T12:35:27.827Z,94739.01
2018-05-10T12:37:55.374Z,94733.14
2018-05-10T12:40:22.881Z,94733.55
2018-05-10T12:42:50.381Z,94735.30
2018-05-10T12:45:17.890Z,94743.53
2018-05-10T12:47:45.424Z,94749.22
2018-05-10T12:50:12.927Z,94748.69
2018-05-10T12:52:40.439Z,94740.70
2018-05-10T12:55:07.974Z,94753.14
2018-05-10T12:57:35.476Z,94749.72
2018-05-10T13:00:04.582Z,94753.61
2018-05-10T13:02:32.129Z,94757.75
2018-05-10T13:04:59.644Z,94753.38
2018-05-10T13:07:27.193Z,94756.83
2018-05-10T13:09:54.701Z,94759.52
2018-05-10T13:12:22.251Z,94755.08
2018-05-10T13:14:49.763Z,94765.76
2018-05-10T13:17:17.296Z,94767.80
2018-05-10T13:19:44.791Z,94766.06
2018-05-10T13:22:12.353Z,94766.81
2018-05-10T13:24:39.904Z,94776.09
2018-05-10T13:27:07.411Z,94773.37
2018-05-10T13:29:34.957Z,94776.52
2018-05-10T13:32:02.459Z,94767.55
2018-05-10T13:34:29.975Z,94776.17
2018-05-10T13:36:57.486Z,94778.32
2018-05-10T13:39:25.042Z,94775.22
2018-05-10T13:41:52.553Z,94769.55
2018-05-10T13:44:20.052Z,94773.83
2018-05-10T13:46:47.663Z,94795.34
2018-05-10T13:49:15.297Z,94796.30
2018-05-10T13:51:43.014Z,94796.64
2018-05-10T13:54:10.629Z,94793.53
2018-05-10T13:56:38.299Z,94797.09
2018-05-10T13:59:05.860Z,94796.47
2018-05-10T14:01:33.355Z,94791.19
2018-05-10T14:04:00.861Z,94800.45
2018-05-10T14:06:28.422Z,94800.09
2018-05-10T14:08:55.960Z,94806.00
2018-05-10T14:11:23.475Z,94810.11
2018-05-10T14:13:51.039Z,94806.56
2018-05-10T14:16:18.551Z,94807.36
2018-05-10T14:18:46.147Z,94811.52
2018-05-10T14:21:13.699Z,94815.42
2018-05-10T14:23:41.232Z,94812.97
2018-05-10T14:26:08.762Z,94832.80
2018-05-10T14:28:36.307Z,94828.16
2018-05-10T14:31:03.871Z,94840.61
2018-05-10T14:33:31.447Z,94841.92
2018-05-10T14:35:58.959Z,94840.08
2018-05-10T14:38:26.461Z,94845.17
2018-05-10T14:40:54.005Z,94836.97
2018-05-10T14:43:21.513Z,94844.59
2018-05-10T14:45:49.088Z,94852.89
2018-05-10T14:48:17.692Z,94860.95
2018-05-10T14:50:45.243Z,94849.98
2018-05-10T14:53:12.743Z,94841.15
2018-05-10T14:55:40.251Z,94850.09
2018-05-10T14:58:07.783Z,94853.07
2018-05-10T15:00:35.327Z,94855.23
2018-05-10T15:03:02.825Z,94851.05
2018-05-10T15:05:30.355Z,94858.45
2018-05-10T15:07:57.863Z,94856.89
2018-05-10T15:10:25.359Z,94869.34
2018-05-10T15:12:52.851Z,94863.63
2018-05-10T15:15:20.367Z,94866.53
2018-05-10T15:17:47.886Z,94868.56
2018-05-10T15:20:15.395Z,94874.86
2018-05-10T15:22:42.890Z,94886.81
2018-05-10T15:25:10.396Z,94883.83
2018-05-10T15:27:37.912Z,94874.53
2018-05-10T15:30:06.694Z,94872.01
2018-05-10T15:32:34.220Z,94868.64
2018-05-10T15:35:01.733Z,94873.45
2018-05-10T15:37:29.227Z,94878.92
2018-05-10T15:39:56.740Z,94875.26
2018-05-10T15:42:24.309Z,94868.54
2018-05-10T15:44:51.820Z,94873.31
2018-05-10T15:47:19.325Z,94870.15
2018-05-10T15:49:46.829Z,94870.33
2018-05-10T15:52:14.357Z,94871.73
2018-05-10T15:54:41.884Z,94865.26
2018-05-10T15:57:09.395Z,94861.03
2018-05-10T15:59:36.896Z,94864.97
2018-05-10T16:02:04.416Z,94857.75
2018-05-10T16:04:31.910Z,94863.60
2018-05-10T16:06:59.408Z,94853.05
2018-05-10T16:09:26.902Z,94857.92
2018-05-10T16:11:54.406Z,94856.01
2018-05-10T16:14:21.899Z,94853.34
2018-05-10T16:16:49.387Z,94860.36
2018-05-10T16:19:16.881Z,94859.77
2018-05-10T16:21:44.457Z,94847.89
2018-05-10T16:24:12.012Z,94848.81
2018-05-10T16:26:39.507Z,94865.39
2018-05-10T16:29:07.010Z,94867.30
2018-05-10T16:31:34.501Z,94864.16
2018-05-10T16:34:02.004Z,94862.40
2018-05-10T16:36:29.498Z,94858.84
2018-05-10T16:38:57.003Z,94845.98
2018-05-10T16:41:24.525Z,94868.18
2018-05-10T16:43:52.074Z,94868.93
2018-05-10T16:46:19.607Z,94864.64
2018-05-10T16:48:47.181Z,94877.87
2018-05-10T16:51:14.773Z,94879.63
2018-05-10T16:53:42.255Z,94882.14
2018-05-10T16:56:09.757Z,94873.80
2018-05-10T16:58:37.259Z,94886.63
2018-05-10T17:01:04.799Z,94881.17
2018-05-10T17:03:32.301Z,94888.23
2018-05-10T17:05:59.843Z,94889.70
2018-05-10T17:08:27.343Z,94891.70
2018-05-10T17:10:54.878Z,94893.44
2018-05-10T17:13:22.387Z,94901.89
2018-05-10T17:15:49.925Z,94910.86
2018-05-10T17:18:17.439Z,94910.49
2018-05-10T17:20:45.053Z,94917.14
2018-05-10T17:23:12.568Z,94918.74
2018-05-10T17:25:40.176Z,94917.92
2018-05-10T17:28:07.684Z,94913.02
2018-05-10T17:30:35.272Z,94910.14
2018-05-10T17:33:02.776Z,94912.52
2018-05-10T17:35:30.313Z,94913.66
2018-05-10T17:37:57.807Z,94916.56
2018-05-10T17:40:25.367Z,94927.69
2018-05-10T17:42:52.936Z,94926.14
2018-05-10T17:45:20.447Z,94922.46
2018-05-10T17:47:47.983Z,94927.34
2018-05-10T17:50:15.474Z,94922.66
2018-05-10T17:52:43.760Z,94914.09
2018-05-10T17:55:11.292Z,94921.11
2018-05-10T17:57:38.785Z,94927.92
2018-05-10T18:00:07.885Z,94929.08
2018-05-10T18:02:35.391Z,94932.22
2018-05-10T18:05:02.924Z,94938.08
2018-05-10T18:07:31.235Z,94937.08
2018-05-10T18:09:58.727Z,94933.56
2018-05-10T18:12:26.275Z,94945.31
2018-05-10T18:14:53.788Z,94928.92
2018-05-10T18:17:21.332Z,94941.78
2018-05-10T18:19:49.103Z,94945.09
2018-05-10T18:22:16.647Z,94934.00
2018-05-10T18:24:44.169Z,94966.20
2018-05-10T18:27:11.715Z,94925.18
2018-05-10T18:29:39.289Z,94968.53
2018-05-10T18:32:06.835Z,94969.90
2018-05-10T18:34:34.335Z,94973.00
2018-05-10T18:37:01.834Z,94980.62
2018-05-10T18:39:29.331Z,94980.25
2018-05-10T18:41:56.888Z,94978.43
2018-05-10T18:44:24.444Z,94985.46
2018-05-10T18:46:51.960Z,94982.54
2018-05-10T18:49:19.573Z,94988.98
2018-05-10T18:51:47.170Z,94994.68
2018-05-10T18:54:14.709Z,95002.22
2018-05-10T18:56:42.500Z,95004.36
2018-05-10T18:59:10.099Z,95002.41
2018-05-10T19:01:37.625Z,95005.15
2018-05-10T19:04:05.128Z,95004.16
2018-05-10T19:06:32.635Z,95011.01
2018-05-10T19:09:00.147Z,94995.38
2018-05-10T19:11:27.652Z,95011.75
2018-05-10T19:13:55.152Z,95016.44
2018-05-10T19:16:22.646Z,95024.59
2018-05-10T19:18:50.155Z,95021.46
2018-05-10T19:21:17.660Z,95030.20
2018-05-10T19:23:45.237Z,95030.63
2018-05-10T19:26:12.700Z,95033.19
2018-05-10T19:28:40.211Z,95029.92
2018-05-10T19:31:07.721Z,95022.69
2018-05-10T19:33:35.214Z,95016.81
2018-05-10T19:36:02.716Z,95031.23
2018-05-10T19:38:30.228Z,95029.07
2018-05-10T19:40:57.752Z,95030.63
2018-05-10T19:43:25.303Z,95033.74
2018-05-10T19:45:52.843Z,95029.08
2018-05-10T19:48:20.358Z,95038.83
2018-05-10T19:50:47.863Z,95035.27
2018-05-10T19:53:15.393Z,95033.90
2018-05-10T19:55:42.961Z,95034.33
2018-05-10T19:58:10.459Z,95037.16
2018-05-10T20:00:38.007Z,95032.30
2018-05-10T20:03:05.531Z,95029.78
2018-05-10T20:05:33.043Z,95034.24
2018-05-10T20:08:00.590Z,95036.00
2018-05-10T20:10:28.097Z,95039.64
2018-05-10T20:12:55.605Z,95022.91
2018-05-10T20:15:23.171Z,95043.69
2018-05-10T20:17:50.721Z,95037.30
2018-05-10T20:20:18.231Z,95032.27
2018-05-10T20:22:45.774Z,95038.30
2018-05-10T20:25:13.280Z,95037.36
2018-05-10T20:27:40.790Z,95045.97
2018-05-10T20:30:08.324Z,95046.19
2018-05-10T20:32:35.823Z,95050.52
2018-05-10T20:35:03.327Z,95053.40
2018-05-10T20:37:30.832Z,95056.13
2018-05-10T20:39:58.397Z,95054.61
2018-05-10T20:42:25.939Z,95041.09
2018-05-10T20:44:53.495Z,95057.49
2018-05-10T20:47:20.988Z,95058.16
2018-05-10T20:49:48.483Z,95065.91
2018-05-10T20:52:16.060Z,95044.77
2018-05-10T20:54:43.516Z,95061.64
2018-05-10T20:57:11.029Z,95065.77
2018-05-10T20:59:39.022Z,95058.19
2018-05-10T21:02:06.523Z,95055.67
2018-05-10T21:04:34.020Z,95063.40
2018-05-10T21:07:01.522Z,95059.27
2018-05-10T21:09:29.056Z,95068.64
2018-05-10T21:11:56.562Z,95068.67
2018-05-10T21:14:24.112Z,95065.52
2018-05-10T21:16:51.620Z,95068.67
2018-05-10T21:19:19.164Z,95074.16
2018-05-10T21:24:19.307Z,95070.39
2018-05-10T21:26:46.812Z,95076.43
2018-05-10T21:29:14.323Z,95073.34
2018-05-10T21:31:41.959Z,95080.66
2018-05-10T21:34:09.460Z,95075.99
2018-05-10T21:36:36.966Z,95082.91
2018-05-10T21:39:04.570Z,95080.00
2018-05-10T21:41:32.071Z,95082.38
2018-05-10T21:43:59.577Z,95077.21
2018-05-10T21:46:27.109Z,95080.23
2018-05-10T21:48:54.648Z,95077.69
2018-05-10T21:51:22.187Z,95078.87
2018-05-10T21:53:49.678Z,95076.32
2018-05-10T21:56:17.178Z,95082.27
2018-05-10T21:58:44.682Z,95089.14
2018-05-10T22:01:12.188Z,95088.78
2018-05-10T22:03:39.697Z,95080.41
2018-05-10T22:06:07.201Z,95078.08
2018-05-10T22:08:34.705Z,95081.41
2018-05-10T22:11:02.204Z,95073.55
2018-05-10T22:13:29.703Z,95080.62
2018-05-10T22:15:57.238Z,95079.33
2018-05-10T22:18:24.735Z,95068.44
2018-05-10T22:20:52.244Z,95064.08
2018-05-10T22:23:19.779Z,95061.09
2018-05-10T22:25:47.363Z,95070.50
2018-05-10T22:28:15.546Z,95067.98
2018-05-10T22:30:43.044Z,95067.44
2018-05-10T22:33:10.566Z,95062.98
2018-05-10T22:35:38.072Z,95063.58
2018-05-10T22:38:05.612Z,95061.46
2018-05-10T22:40:33.111Z,95068.10
2018-05-10T22:43:00.610Z,95062.43
2018-05-10T22:45:28.125Z,95049.31
2018-05-10T22:47:55.633Z,95065.26
2018-05-10T22:50:23.181Z,95067.98
2018-05-10T22:52:50.677Z,95065.41
2018-05-10T22:55:18.180Z,95066.98
2018-05-10T22:57:45.683Z,95065.02
2018-05-10T23:00:13.228Z,95067.92
2018-05-10T23:02:40.772Z,95061.85
2018-05-10T23:05:08.287Z,95080.77
2018-05-10T23:07:35.796Z,95072.02
2018-05-10T23:10:03.301Z,95060.27
2018-05-10T23:12:30.800Z,95057.76
2018-05-10T23:14:58.303Z,95055.80
2018-05-10T23:17:25.824Z,95052.34
2018-05-10T23:19:53.324Z,95046.67
2018-05-10T23:22:20.831Z,95048.03
2018-05-10T23:24:48.330Z,95049.97
2018-05-10T23:27:15.829Z,95049.83
2018-05-10T23:29:43.353Z,95048.46
2018-05-10T23:32:10.868Z,95047.55
2018-05-10T23:34:38.365Z,95052.27
2018-05-10T23:37:05.860Z,95047.77
2018-05-10T23:39:33.364Z,95055.43
2018-05-10T23:42:00.904Z,95061.42
2018-05-10T23:44:28.409Z,95061.61
2018-05-10T23:46:55.921Z,95060.30
2018-05-10T23:49:23.430Z,95064.92
2018-05-10T23:51:50.984Z,95067.02
2018-05-10T23:54:18.482Z,95073.75
2018-05-10T23:56:46.013Z,95067.67
2018-05-10T23:59:13.524Z,95072.08
